createdAt,value
2022-10-11T00:00:33.321Z,99629.05
2022-10-11T00:01:37.609Z,99631.41
2022-10-11T00:02:41.811Z,99627.39
2022-10-11T00:03:45.936Z,99624.59
2022-10-11T00:04:50.044Z,99627.7
2022-10-11T00:05:54.145Z,99630.77
2022-10-11T00:06:58.233Z,99630.05
2022-10-11T00:08:02.341Z,99636.7
2022-10-11T00:09:06.446Z,99626.83
2022-10-11T00:10:10.568Z,99620.76
2022-10-11T00:11:14.694Z,99629.66
2022-10-11T00:12:18.789Z,99632.9
2022-10-11T00:13:22.876Z,99637.06
2022-10-11T00:14:26.989Z,99636.22
2022-10-11T00:15:31.122Z,99634.57
2022-10-11T00:16:35.248Z,99635.73
2022-10-11T00:17:39.326Z,99637.14
2022-10-11T00:18:43.422Z,99640.02
2022-10-11T00:19:47.526Z,99635.55
2022-10-11T00:20:51.664Z,99638.15
2022-10-11T00:21:55.755Z,99637.59
2022-10-11T00:22:59.840Z,99634.09
2022-10-11T00:24:03.954Z,99640.61
2022-10-11T00:25:08.080Z,99632.64
2022-10-11T00:26:12.213Z,99641.31
2022-10-11T00:27:16.309Z,99636.47
2022-10-11T00:28:20.506Z,99627.64
2022-10-11T00:29:24.717Z,99632.96
2022-10-11T00:30:28.858Z,99628.64
2022-10-11T00:31:36.646Z,99635.47
2022-10-11T00:32:40.750Z,99622.5
2022-10-11T00:33:44.888Z,99632.34
2022-10-11T00:34:49.017Z,99636.88
2022-10-11T00:35:53.131Z,99633.83
2022-10-11T00:36:57.238Z,99635.17
2022-10-11T00:38:01.351Z,99629.06
2022-10-11T00:39:05.437Z,99627.64
2022-10-11T00:40:09.692Z,99633.94
2022-10-11T00:41:13.776Z,99628.91
2022-10-11T00:42:17.920Z,99633.64
2022-10-11T00:43:22.027Z,99638.59
2022-10-11T00:44:26.159Z,99643.55
2022-10-11T00:45:30.268Z,99642.96
2022-10-11T00:46:34.393Z,99641.47
2022-10-11T00:47:38.515Z,99644.41
2022-10-11T00:48:42.659Z,99639
2022-10-11T00:49:46.757Z,99636.18
2022-10-11T00:50:50.851Z,99642.17
2022-10-11T00:51:54.991Z,99640.16
2022-10-11T00:52:59.121Z,99649.14
2022-10-11T00:54:03.239Z,99643.76
2022-10-11T00:55:07.357Z,99641.22
2022-10-11T00:56:11.505Z,99649.56
2022-10-11T00:57:15.634Z,99642.52
2022-10-11T00:58:19.786Z,99647.7
2022-10-11T00:59:23.907Z,99645.61
2022-10-11T01:00:28.015Z,99644.38
2022-10-11T01:01:32.237Z,99649.59
2022-10-11T01:02:36.516Z,99644.63
2022-10-11T01:03:40.652Z,99646.91
2022-10-11T01:04:44.736Z,99649.34
2022-10-11T01:05:48.853Z,99638.08
2022-10-11T01:06:52.959Z,99645.69
2022-10-11T01:07:57.090Z,99646.19
2022-10-11T01:09:01.212Z,99640.55
2022-10-11T01:10:05.364Z,99646.05
2022-10-11T01:11:09.480Z,99641.72
2022-10-11T01:12:13.592Z,99645.63
2022-10-11T01:13:17.687Z,99645.22
2022-10-11T01:14:21.810Z,99652.97
2022-10-11T01:15:25.991Z,99649.85
2022-10-11T01:16:30.103Z,99642.14
2022-10-11T01:17:34.203Z,99642.35
2022-10-11T01:18:38.314Z,99642.88
2022-10-11T01:19:42.419Z,99638.52
2022-10-11T01:20:46.522Z,99639.81
2022-10-11T01:21:50.616Z,99639.59
2022-10-11T01:22:54.725Z,99642.79
2022-10-11T01:23:58.856Z,99651.73
2022-10-11T01:25:05.886Z,99639.96
2022-10-11T01:26:09.956Z,99650.86
2022-10-11T01:27:14.072Z,99639.53
2022-10-11T01:28:18.301Z,99642.84
2022-10-11T01:29:22.532Z,99641.13
2022-10-11T01:30:26.645Z,99644.78
2022-10-11T01:31:30.775Z,99632.26
2022-10-11T01:32:34.877Z,99640.64
2022-10-11T01:33:39.005Z,99639.7
2022-10-11T01:34:43.113Z,99644.48
2022-10-11T01:35:47.242Z,99636.77
2022-10-11T01:36:51.345Z,99645.8
2022-10-11T01:37:55.483Z,99637.89
2022-10-11T01:38:59.578Z,99644.73
2022-10-11T01:40:03.692Z,99650.3
2022-10-11T01:41:07.830Z,99648.88
2022-10-11T01:42:11.953Z,99649.49
2022-10-11T01:43:16.042Z,99644.94
2022-10-11T01:44:20.156Z,99632.47
2022-10-11T01:45:24.549Z,99648.14
2022-10-11T01:46:28.695Z,99653.11
2022-10-11T01:47:32.811Z,99647.52
2022-10-11T01:48:36.914Z,99643.34
2022-10-11T01:49:41.016Z,99649.34
2022-10-11T01:50:45.106Z,99660.22
2022-10-11T01:51:49.247Z,99650.37
2022-10-11T01:52:53.364Z,99656.03
2022-10-11T01:53:57.480Z,99655.7
2022-10-11T01:55:17.070Z,99657.3
2022-10-11T01:56:21.187Z,99650.23
2022-10-11T01:57:25.506Z,99649.55
2022-10-11T01:58:29.632Z,99650.93
2022-10-11T01:59:33.759Z,99659.09
2022-10-11T02:00:37.903Z,99661.03
2022-10-11T02:01:42.273Z,99658.31
2022-10-11T02:02:46.572Z,99659.09
2022-10-11T02:03:50.680Z,99664.05
2022-10-11T02:04:54.791Z,99663.42
2022-10-11T02:05:58.867Z,99660.55
2022-10-11T02:07:02.972Z,99660.17
2022-10-11T02:08:07.339Z,99658.16
2022-10-11T02:09:11.443Z,99664.27
2022-10-11T02:10:15.570Z,99655.52
2022-10-11T02:11:19.751Z,99664.27
2022-10-11T02:12:23.865Z,99666.84
2022-10-11T02:13:28.006Z,99657.48
2022-10-11T02:14:32.085Z,99664.27
2022-10-11T02:15:36.182Z,99665.49
2022-10-11T02:16:40.304Z,99655.27
2022-10-11T02:17:44.435Z,99663.56
2022-10-11T02:18:48.506Z,99663.49
2022-10-11T02:19:52.613Z,99669.63
2022-10-11T02:20:56.716Z,99663.73
2022-10-11T02:22:00.826Z,99670.64
2022-10-11T02:23:04.934Z,99672.23
2022-10-11T02:24:09.033Z,99669.05
2022-10-11T02:25:13.116Z,99668.37
2022-10-11T02:26:17.223Z,99664.2
2022-10-11T02:27:21.311Z,99668.66
2022-10-11T02:28:25.841Z,99665.94
2022-10-11T02:29:30.163Z,99665.11
2022-10-11T02:30:34.255Z,99665.52
2022-10-11T02:31:38.360Z,99666.04
2022-10-11T02:32:42.463Z,99660.09
2022-10-11T02:33:46.571Z,99658
2022-10-11T02:34:50.661Z,99662.43
2022-10-11T02:35:54.741Z,99661.36
2022-10-11T02:36:58.843Z,99657.63
2022-10-11T02:38:02.932Z,99658.66
2022-10-11T02:39:07.035Z,99666.2
2022-10-11T02:40:11.111Z,99661.25
2022-10-11T02:41:15.207Z,99662.59
2022-10-11T02:42:19.292Z,99655.77
2022-10-11T02:43:23.425Z,99663.84
2022-10-11T02:44:27.531Z,99666.73
2022-10-11T02:45:31.642Z,99666.43
2022-10-11T02:46:35.749Z,99669.27
2022-10-11T02:47:39.964Z,99668.59
2022-10-11T02:48:44.077Z,99662.3
2022-10-11T02:49:48.198Z,99673.66
2022-10-11T02:50:52.301Z,99667.07
2022-10-11T02:51:56.376Z,99664.27
2022-10-11T02:53:00.696Z,99667.36
2022-10-11T02:54:04.813Z,99677.28
2022-10-11T02:55:08.911Z,99668.19
2022-10-11T02:56:13.038Z,99676.13
2022-10-11T02:57:17.152Z,99675.83
2022-10-11T02:58:21.328Z,99676.13
2022-10-11T02:59:25.453Z,99670.6
2022-10-11T03:00:29.565Z,99671.05
2022-10-11T03:01:33.780Z,99671.91
2022-10-11T03:02:38.064Z,99677.94
2022-10-11T03:03:42.158Z,99680.22
2022-10-11T03:04:46.297Z,99680.89
2022-10-11T03:05:50.372Z,99680.97
2022-10-11T03:06:54.466Z,99685.55
2022-10-11T03:07:58.552Z,99677.62
2022-10-11T03:09:02.660Z,99679.41
2022-10-11T03:10:06.853Z,99682.64
2022-10-11T03:11:10.949Z,99681.37
2022-10-11T03:12:15.051Z,99681.2
2022-10-11T03:13:19.627Z,99676.57
2022-10-11T03:14:23.752Z,99676.98
2022-10-11T03:15:27.866Z,99673.73
2022-10-11T03:16:31.975Z,99680.86
2022-10-11T03:17:38.100Z,99676.83
2022-10-11T03:18:42.183Z,99684.06
2022-10-11T03:19:46.287Z,99677.73
2022-10-11T03:20:50.421Z,99678.55
2022-10-11T03:21:54.511Z,99673.55
2022-10-11T03:22:58.612Z,99679.37
2022-10-11T03:24:02.698Z,99672.84
2022-10-11T03:25:06.782Z,99684.36
2022-10-11T03:26:10.884Z,99688.57
2022-10-11T03:27:14.992Z,99684.06
2022-10-11T03:28:19.252Z,99681.03
2022-10-11T03:29:23.490Z,99685.99
2022-10-11T03:30:27.588Z,99688.27
2022-10-11T03:31:32.000Z,99688.56
2022-10-11T03:32:36.124Z,99691.25
2022-10-11T03:33:40.242Z,99691
2022-10-11T03:34:44.367Z,99692.03
2022-10-11T03:35:48.502Z,99687.16
2022-10-11T03:36:52.637Z,99692
2022-10-11T03:37:56.772Z,99689.47
2022-10-11T03:39:00.866Z,99693.5
2022-10-11T03:40:05.003Z,99686.86
2022-10-11T03:41:09.122Z,99685.7
2022-10-11T03:42:13.253Z,99692.64
2022-10-11T03:43:17.374Z,99691.48
2022-10-11T03:44:21.494Z,99692.67
2022-10-11T03:45:25.598Z,99692.89
2022-10-11T03:46:29.705Z,99686.67
2022-10-11T03:47:34.178Z,99688.95
2022-10-11T03:48:38.273Z,99695.95
2022-10-11T03:49:44.817Z,99686.7
2022-10-11T03:50:48.933Z,99688.98
2022-10-11T03:51:53.049Z,99700.97
2022-10-11T03:52:57.152Z,99690.32
2022-10-11T03:54:01.268Z,99693.63
2022-10-11T03:55:05.372Z,99693.48
2022-10-11T03:56:10.057Z,99689.09
2022-10-11T03:57:14.775Z,99695.79
2022-10-11T03:58:18.888Z,99696.13
2022-10-11T03:59:22.970Z,99693.81
2022-10-11T04:00:27.077Z,99694.59
2022-10-11T04:01:31.366Z,99699.59
2022-10-11T04:02:39.972Z,99701.64
2022-10-11T04:03:44.135Z,99687.55
2022-10-11T04:04:48.230Z,99695.63
2022-10-11T04:05:52.343Z,99698.39
2022-10-11T04:06:56.447Z,99696.13
2022-10-11T04:08:00.573Z,99696.41
2022-10-11T04:09:04.668Z,99692.39
2022-10-11T04:10:08.798Z,99698.8
2022-10-11T04:11:12.895Z,99697.82
2022-10-11T04:12:17.011Z,99697.02
2022-10-11T04:13:21.150Z,99698.64
2022-10-11T04:14:25.275Z,99700.88
2022-10-11T04:15:29.377Z,99699.98
2022-10-11T04:16:33.514Z,99692.94
2022-10-11T04:17:37.609Z,99696.17
2022-10-11T04:18:41.753Z,99694.05
2022-10-11T04:19:45.888Z,99706.34
2022-10-11T04:20:49.982Z,99704.26
2022-10-11T04:21:54.078Z,99705.83
2022-10-11T04:22:58.262Z,99710.37
2022-10-11T04:24:02.369Z,99705
2022-10-11T04:25:06.505Z,99709.03
2022-10-11T04:26:10.607Z,99706.64
2022-10-11T04:27:14.705Z,99710.02
2022-10-11T04:28:18.921Z,99706.59
2022-10-11T04:29:23.215Z,99711.14
2022-10-11T04:30:29.828Z,99705.38
2022-10-11T04:31:34.384Z,99713.19
2022-10-11T04:32:38.491Z,99713.3
2022-10-11T04:33:42.590Z,99714.51
2022-10-11T04:34:46.693Z,99714.51
2022-10-11T04:35:50.834Z,99709.76
2022-10-11T04:36:54.907Z,99716.16
2022-10-11T04:37:59.005Z,99719.96
2022-10-11T04:39:03.137Z,99720.19
2022-10-11T04:40:07.234Z,99715.53
2022-10-11T04:41:11.335Z,99714.33
2022-10-11T04:42:15.431Z,99713.41
2022-10-11T04:43:19.558Z,99704.34
2022-10-11T04:44:23.652Z,99719.2
2022-10-11T04:45:27.759Z,99717.63
2022-10-11T04:46:31.881Z,99718.97
2022-10-11T04:47:35.982Z,99715.54
2022-10-11T04:48:40.083Z,99712.03
2022-10-11T04:49:44.217Z,99712.11
2022-10-11T04:50:50.135Z,99714.78
2022-10-11T04:51:54.247Z,99712.36
2022-10-11T04:52:58.359Z,99713.92
2022-10-11T04:54:02.479Z,99713.33
2022-10-11T04:55:06.574Z,99717.46
2022-10-11T04:56:11.169Z,99715.22
2022-10-11T04:57:15.320Z,99722.08
2022-10-11T04:58:19.438Z,99711.83
2022-10-11T04:59:23.578Z,99725.52
2022-10-11T05:00:27.717Z,99729.46
2022-10-11T05:01:31.835Z,99723.78
2022-10-11T05:02:36.230Z,99721.59
2022-10-11T05:03:40.342Z,99727.23
2022-10-11T05:04:44.492Z,99729.59
2022-10-11T05:05:48.643Z,99725.87
2022-10-11T05:06:52.733Z,99726.25
2022-10-11T05:07:56.835Z,99732.44
2022-10-11T05:09:00.967Z,99728.56
2022-10-11T05:10:05.066Z,99731.88
2022-10-11T05:11:09.171Z,99735.2
2022-10-11T05:12:13.272Z,99736.85
2022-10-11T05:13:17.420Z,99735.63
2022-10-11T05:14:21.526Z,99737.97
2022-10-11T05:15:25.628Z,99731.02
2022-10-11T05:16:29.748Z,99737.5
2022-10-11T05:17:33.872Z,99735.8
2022-10-11T05:18:38.015Z,99738.04
2022-10-11T05:19:42.121Z,99736.27
2022-10-11T05:20:46.239Z,99745.81
2022-10-11T05:21:50.338Z,99742.49
2022-10-11T05:22:54.533Z,99742.13
2022-10-11T05:23:58.641Z,99745.62
2022-10-11T05:25:02.787Z,99743.61
2022-10-11T05:26:08.106Z,99750.69
2022-10-11T05:27:12.973Z,99760.01
2022-10-11T05:28:17.219Z,99762.44
2022-10-11T05:29:21.505Z,99751.14
2022-10-11T05:30:25.598Z,99760.46
2022-10-11T05:31:29.725Z,99762.61
2022-10-11T05:32:33.834Z,99763.8
2022-10-11T05:33:37.955Z,99764.37
2022-10-11T05:34:42.097Z,99766.7
2022-10-11T05:35:46.206Z,99767.96
2022-10-11T05:36:50.341Z,99767.47
2022-10-11T05:37:54.446Z,99777.91
2022-10-11T05:38:58.549Z,99769.09
2022-10-11T05:40:02.675Z,99768.36
2022-10-11T05:41:06.770Z,99767.17
2022-10-11T05:42:11.173Z,99771.96
2022-10-11T05:43:15.260Z,99778.08
2022-10-11T05:44:19.352Z,99782.47
2022-10-11T05:45:23.460Z,99776.2
2022-10-11T05:46:27.533Z,99781.97
2022-10-11T05:47:31.678Z,99782.92
2022-10-11T05:48:35.779Z,99789.32
2022-10-11T05:49:39.878Z,99788.3
2022-10-11T05:50:43.984Z,99786.78
2022-10-11T05:51:48.078Z,99793.64
2022-10-11T05:52:52.178Z,99792.66
2022-10-11T05:53:56.661Z,99799.13
2022-10-11T05:55:00.746Z,99794.18
2022-10-11T05:56:05.610Z,99800.52
2022-10-11T05:57:10.549Z,99791.91
2022-10-11T05:58:14.711Z,99801.23
2022-10-11T05:59:18.814Z,99797.97
2022-10-11T06:00:22.914Z,99798.48
2022-10-11T06:01:27.184Z,99801.94
2022-10-11T06:02:31.469Z,99803.02
2022-10-11T06:03:35.575Z,99796.04
2022-10-11T06:04:39.658Z,99810.03
2022-10-11T06:05:43.754Z,99809.52
2022-10-11T06:06:47.880Z,99809.52
2022-10-11T06:07:51.974Z,99808.74
2022-10-11T06:08:56.060Z,99812.41
2022-10-11T06:10:00.157Z,99811.55
2022-10-11T06:11:04.260Z,99803.09
2022-10-11T06:12:12.354Z,99804.72
2022-10-11T06:13:16.469Z,99808.33
2022-10-11T06:14:20.577Z,99814.98
2022-10-11T06:15:24.692Z,99819.11
2022-10-11T06:16:28.793Z,99817.61
2022-10-11T06:17:32.911Z,99808.05
2022-10-11T06:18:37.009Z,99810.37
2022-10-11T06:19:41.098Z,99817.77
2022-10-11T06:20:45.207Z,99816.32
2022-10-11T06:21:49.339Z,99765.27
2022-10-11T06:22:53.462Z,99821.96
2022-10-11T06:24:02.218Z,99824.64
2022-10-11T06:25:06.328Z,99826.03
2022-10-11T06:26:11.283Z,99821.95
2022-10-11T06:27:15.564Z,99825.73
2022-10-11T06:28:19.885Z,99833.5
2022-10-11T06:29:24.143Z,99834.78
2022-10-11T06:30:28.425Z,99820.38
2022-10-11T06:31:32.588Z,99831.92
2022-10-11T06:32:36.689Z,99832.38
2022-10-11T06:33:40.813Z,99833.95
2022-10-11T06:34:44.907Z,99827.72
2022-10-11T06:35:49.034Z,99834.13
2022-10-11T06:36:53.144Z,99832.73
2022-10-11T06:37:57.246Z,99836.5
2022-10-11T06:39:01.380Z,99827.3
2022-10-11T06:40:05.471Z,99840.31
2022-10-11T06:41:09.606Z,99835.65
2022-10-11T06:42:13.698Z,99838.55
2022-10-11T06:43:17.942Z,99836.52
2022-10-11T06:44:22.049Z,99834.7
2022-10-11T06:45:26.149Z,99838.98
2022-10-11T06:46:30.255Z,99842.33
2022-10-11T06:47:34.341Z,99845.37
2022-10-11T06:48:38.604Z,99847.12
2022-10-11T06:49:42.757Z,99849.73
2022-10-11T06:51:00.881Z,99849.11
2022-10-11T06:52:05.116Z,99861.12
2022-10-11T06:53:09.251Z,99862.33
2022-10-11T06:54:13.404Z,99854.47
2022-10-11T06:55:17.662Z,99863.02
2022-10-11T06:56:21.795Z,99857.19
2022-10-11T06:57:25.910Z,99861.95
2022-10-11T06:58:30.052Z,99858.17
2022-10-11T06:59:34.157Z,99855.57
2022-10-11T07:00:38.395Z,99857.84
2022-10-11T07:01:42.642Z,99856.09
2022-10-11T07:02:46.756Z,99857.2
2022-10-11T07:03:50.892Z,99853.38
2022-10-11T07:04:55.004Z,99860.07
2022-10-11T07:06:03.554Z,99863.33
2022-10-11T07:07:08.422Z,99865.59
2022-10-11T07:08:12.537Z,99865.13
2022-10-11T07:09:16.673Z,99867.56
2022-10-11T07:10:20.800Z,99858.61
2022-10-11T07:11:24.931Z,99865.96
2022-10-11T07:12:29.041Z,99864.83
2022-10-11T07:13:33.113Z,99867.74
2022-10-11T07:14:37.227Z,99874.44
2022-10-11T07:15:41.314Z,99873.45
2022-10-11T07:16:45.468Z,99875.62
2022-10-11T07:17:49.593Z,99884.45
2022-10-11T07:19:00.668Z,99881.54
2022-10-11T07:20:04.891Z,99885.09
2022-10-11T07:21:09.035Z,99891.69
2022-10-11T07:22:13.140Z,99893.7
2022-10-11T07:23:17.250Z,99895.02
2022-10-11T07:24:21.564Z,99885.28
2022-10-11T07:25:25.755Z,99891.23
2022-10-11T07:26:38.391Z,99891.69
2022-10-11T07:27:42.843Z,99890.53
2022-10-11T07:28:47.160Z,99900.25
2022-10-11T07:29:51.543Z,99897.44
2022-10-11T07:30:55.647Z,99897.97
2022-10-11T07:31:59.811Z,99896.63
2022-10-11T07:33:03.949Z,99898.62
2022-10-11T07:34:08.153Z,99896.47
2022-10-11T07:35:12.319Z,99892.31
2022-10-11T07:36:16.436Z,99819.42
2022-10-11T07:37:20.537Z,99902.17
2022-10-11T07:38:25.053Z,99902.55
2022-10-11T07:39:29.157Z,99908.45
2022-10-11T07:40:33.254Z,99910.31
2022-10-11T07:41:39.722Z,99901.7
2022-10-11T07:42:49.237Z,99907.91
2022-10-11T07:43:53.378Z,99907.53
2022-10-11T07:44:57.508Z,99911.17
2022-10-11T07:46:01.741Z,99904.38
2022-10-11T07:47:11.924Z,99912.81
2022-10-11T07:48:16.033Z,99904.3
2022-10-11T07:49:20.158Z,99905.37
2022-10-11T07:50:24.423Z,99908.87
2022-10-11T07:51:28.529Z,99913.74
2022-10-11T07:52:32.654Z,99908.8
2022-10-11T07:53:36.749Z,99917.01
2022-10-11T07:54:40.935Z,99916.49
2022-10-11T07:55:45.039Z,99918.25
2022-10-11T07:56:49.155Z,99917.25
2022-10-11T07:57:53.673Z,99919.1
2022-10-11T07:58:57.836Z,99918.41
2022-10-11T08:00:01.992Z,99924.95
2022-10-11T08:01:06.252Z,99914.16
2022-10-11T08:02:10.470Z,99915.67
2022-10-11T08:03:14.650Z,99910.19
2022-10-11T08:04:18.819Z,99912.34
2022-10-11T08:05:22.951Z,99915.67
2022-10-11T08:06:27.079Z,99924.3
2022-10-11T08:07:31.421Z,99923.37
2022-10-11T08:08:35.554Z,99924.98
2022-10-11T08:09:39.683Z,99925.22
2022-10-11T08:10:44.078Z,99922
2022-10-11T08:11:48.362Z,99929.66
2022-10-11T08:12:52.482Z,99926.22
2022-10-11T08:13:56.941Z,99919.91
2022-10-11T08:53:47.349Z,99940.86
2022-10-11T08:54:51.482Z,99943.26
2022-10-11T08:55:55.607Z,99937.91
2022-10-11T08:56:59.731Z,99935.67
2022-10-11T08:58:03.830Z,99941.5
2022-10-11T08:59:17.056Z,99931.41
2022-10-11T09:00:47.922Z,99935.91
2022-10-11T09:01:52.208Z,99932.34
2022-10-11T09:03:10.086Z,99936.02
2022-10-11T09:04:14.263Z,99944.77
2022-10-11T09:05:18.375Z,99939.34
2022-10-11T09:06:22.482Z,99939.17
2022-10-11T09:07:26.586Z,99940.98
2022-10-11T09:08:30.695Z,99934.66
2022-10-11T09:09:34.784Z,99941.28
2022-10-11T09:10:38.901Z,99943.59
2022-10-11T09:11:42.997Z,99944.41
2022-10-11T09:12:47.102Z,99935.48
2022-10-11T09:13:51.207Z,99942.02
2022-10-11T09:14:55.314Z,99950.58
2022-10-11T09:15:59.418Z,99943.97
2022-10-11T09:17:03.544Z,99936.49
2022-10-11T09:18:07.660Z,99941.09
2022-10-11T09:19:11.841Z,99941.31
2022-10-11T09:20:15.937Z,99941.59
2022-10-11T09:21:20.055Z,99942.94
2022-10-11T09:22:30.669Z,99938.34
2022-10-11T09:23:35.042Z,99929.66
2022-10-11T09:24:39.151Z,99945.36
2022-10-11T09:25:43.278Z,99936.64
2022-10-11T09:26:47.419Z,99939.98
2022-10-11T09:28:04.012Z,99938.41
2022-10-11T09:29:08.473Z,99938.91
2022-10-11T09:30:12.738Z,99938.09
2022-10-11T09:31:16.937Z,99942.17
2022-10-11T09:32:21.063Z,99930.66
2022-10-11T09:33:25.183Z,99945.23
2022-10-11T09:34:29.284Z,99944.08
2022-10-11T09:35:33.419Z,99952.38
2022-10-11T09:36:37.533Z,99952.72
2022-10-11T09:37:41.632Z,99954.19
2022-10-11T09:38:45.748Z,99950.42
2022-10-11T09:39:49.873Z,99940.28
2022-10-11T09:40:53.984Z,99953.2
2022-10-11T09:42:00.358Z,99945.27
2022-10-11T09:43:04.476Z,99952.2
2022-10-11T09:44:08.590Z,99946.53
2022-10-11T09:45:12.705Z,99951.07
2022-10-11T09:46:16.825Z,99949.3
2022-10-11T09:47:20.944Z,99948.29
2022-10-11T09:48:25.062Z,99946.03
2022-10-11T09:49:29.183Z,99950.63
2022-10-11T09:50:33.303Z,99943.87
2022-10-11T09:51:37.406Z,99950.05
2022-10-11T09:52:41.981Z,99947.03
2022-10-11T09:53:46.086Z,99951.22
2022-10-11T09:54:50.194Z,99950.46
2022-10-11T09:55:54.357Z,99949.23
2022-10-11T09:56:58.521Z,99942.94
2022-10-11T09:58:02.657Z,99946.78
2022-10-11T09:59:06.999Z,99938.69
2022-10-11T10:00:11.106Z,99951.22
2022-10-11T10:01:15.274Z,99936
2022-10-11T10:02:19.487Z,99952.07
2022-10-11T10:03:23.661Z,99945.2
2022-10-11T10:04:31.879Z,99953.97
2022-10-11T10:05:40.818Z,99950.64
2022-10-11T10:06:44.917Z,99949.7
2022-10-11T10:07:49.037Z,99956.41
2022-10-11T10:08:53.154Z,99953.41
2022-10-11T10:09:57.236Z,99948.47
2022-10-11T10:11:01.367Z,99955.41
2022-10-11T10:12:05.464Z,99952.77
2022-10-11T10:13:09.565Z,99956
2022-10-11T10:14:13.658Z,99951.91
2022-10-11T10:15:17.775Z,99952.55
2022-10-11T10:16:22.190Z,99948.88
2022-10-11T10:17:26.284Z,99955.72
2022-10-11T10:18:30.475Z,99944.62
2022-10-11T10:19:34.595Z,99949.05
2022-10-11T10:20:38.747Z,99951.15
2022-10-11T10:21:42.865Z,99944.73
2022-10-11T10:22:46.998Z,99952.15
2022-10-11T10:23:51.118Z,99947.23
2022-10-11T10:24:55.262Z,99951.84
2022-10-11T10:25:59.386Z,99960.42
2022-10-11T10:27:03.499Z,99960.29
2022-10-11T10:28:07.628Z,99955.52
2022-10-11T10:29:11.922Z,99955.45
2022-10-11T10:30:16.127Z,99951.88
2022-10-11T10:31:20.328Z,99961.18
2022-10-11T10:32:24.454Z,99959.94
2022-10-11T10:33:29.470Z,99952.39
2022-10-11T10:34:33.556Z,99963.69
2022-10-11T10:35:37.663Z,99962.86
2022-10-11T10:36:41.764Z,99963.62
2022-10-11T10:37:45.891Z,99959.42
2022-10-11T10:38:54.816Z,99958.02
2022-10-11T10:39:58.947Z,99958.81
2022-10-11T10:41:03.104Z,99961.22
2022-10-11T10:42:07.218Z,99965.88
2022-10-11T10:43:11.341Z,99959.77
2022-10-11T10:44:15.462Z,99965.78
2022-10-11T10:45:22.697Z,99963.95
2022-10-11T10:46:26.818Z,99964.91
2022-10-11T10:47:31.015Z,99961.92
2022-10-11T10:49:41.456Z,99963.33
2022-10-11T10:50:57.616Z,99966.32
2022-10-11T10:52:01.753Z,99963.56
2022-10-11T10:53:41.758Z,99969.58
2022-10-11T10:54:45.876Z,99968.65
2022-10-11T10:55:49.970Z,99960.2
2022-10-11T10:56:57.067Z,99960.2
2022-10-11T10:58:01.220Z,99963.11
2022-10-11T10:59:05.333Z,99965.93
2022-10-11T11:00:09.477Z,99966.11
2022-10-11T11:01:13.716Z,99957.17
2022-10-11T11:02:41.411Z,99975.48
2022-10-11T11:03:45.781Z,99970.81
2022-10-11T11:04:50.041Z,99973.91
2022-10-11T11:05:54.272Z,99959.8
2022-10-11T11:06:58.349Z,99966.32
2022-10-11T11:08:02.633Z,99970.23
2022-10-11T11:09:06.779Z,99965.05
2022-10-11T11:10:10.873Z,99979.74
2022-10-11T11:11:14.981Z,99970.3
2022-10-11T11:12:19.104Z,99969.87
2022-10-11T11:13:23.219Z,99969.44
2022-10-11T11:14:27.409Z,99962.42
2022-10-11T11:15:38.058Z,99969.26
2022-10-11T11:16:42.441Z,99963.73
2022-10-11T11:17:46.580Z,99958.81
2022-10-11T11:18:50.683Z,99968.33
2022-10-11T11:19:54.787Z,99967.05
2022-10-11T11:20:58.900Z,99963.38
2022-10-11T11:22:03.004Z,99962.48
2022-10-11T11:23:07.152Z,99969.33
2022-10-11T11:24:11.291Z,99968.63
2022-10-11T11:25:15.412Z,99965.99
2022-10-11T11:26:19.560Z,99971.08
2022-10-11T11:27:23.682Z,99962.34
2022-10-11T11:28:28.017Z,99956.05
2022-10-11T11:29:32.235Z,99957.93
2022-10-11T11:30:36.376Z,99965.93
2022-10-11T11:31:40.494Z,99966.78
2022-10-11T11:32:46.860Z,99956.65
2022-10-11T11:33:50.954Z,99972.97
2022-10-11T11:34:55.083Z,99966.72
2022-10-11T11:35:59.180Z,99955.57
2022-10-11T11:37:03.274Z,99960.96
2022-10-11T11:38:07.690Z,99957.56
2022-10-11T11:39:11.777Z,99965.45
2022-10-11T11:40:15.919Z,99965.73
2022-10-11T11:41:20.045Z,99958.86
2022-10-11T11:42:24.201Z,99958.16
2022-10-11T11:43:28.317Z,99958.11
2022-10-11T11:44:32.494Z,99965.69
2022-10-11T11:45:36.599Z,99968.06
2022-10-11T11:46:40.692Z,99961.2
2022-10-11T11:47:44.798Z,99956.94
2022-10-11T11:48:48.915Z,99969.23
2022-10-11T11:49:53.101Z,99967
2022-10-11T11:50:59.855Z,99968.75
2022-10-11T11:52:04.048Z,99969.06
2022-10-11T11:53:08.175Z,99977.11
2022-10-11T11:54:12.302Z,99974.53
2022-10-11T11:55:16.405Z,99971.61
2022-10-11T11:56:20.490Z,99979.24
2022-10-11T11:57:24.601Z,99969.28
2022-10-11T11:58:28.720Z,99974.47
2022-10-11T11:59:32.829Z,99965.55
2022-10-11T12:00:40.077Z,99974.98
2022-10-11T12:01:44.285Z,99967.47
2022-10-11T12:02:48.484Z,99977.5
2022-10-11T12:03:52.582Z,99975.34
2022-10-11T12:04:56.905Z,99973.45
2022-10-11T12:06:01.081Z,99978.59
2022-10-11T12:07:17.837Z,99977.05
2022-10-11T12:08:25.124Z,99978.31
2022-10-11T12:09:29.228Z,99977.48
2022-10-11T12:10:36.274Z,99977.39
2022-10-11T12:11:43.367Z,99979.24
2022-10-11T12:12:47.466Z,99968.45
2022-10-11T12:13:51.565Z,99971.66
2022-10-11T12:14:55.643Z,99968.11
2022-10-11T12:15:59.768Z,99978.69
2022-10-11T12:17:03.965Z,99967.83
2022-10-11T12:18:08.071Z,99985.96
2022-10-11T12:19:12.177Z,99980.09
2022-10-11T12:20:16.281Z,99976.93
2022-10-11T12:21:20.387Z,99975.73
2022-10-11T12:22:27.096Z,99978.05
2022-10-11T12:23:31.211Z,99978.98
2022-10-11T12:24:35.308Z,99977.23
2022-10-11T12:25:39.373Z,99979.27
2022-10-11T12:26:43.875Z,99961.99
2022-10-11T12:27:47.980Z,99984.48
2022-10-11T12:28:52.181Z,99987.39
2022-10-11T12:29:56.502Z,99981.08
2022-10-11T12:31:00.669Z,99937.7
2022-10-11T12:32:04.772Z,99987.09
2022-10-11T12:33:08.891Z,99984.52
2022-10-11T12:34:12.982Z,99990.12
2022-10-11T12:35:17.114Z,99991.36
2022-10-11T12:36:23.135Z,99983.12
2022-10-11T12:37:27.295Z,99991.73
2022-10-11T12:38:33.974Z,99986.83
2022-10-11T12:39:38.126Z,99990.34
2022-10-11T12:40:42.333Z,99996
2022-10-11T12:41:46.455Z,99990.34
2022-10-11T12:42:50.587Z,100002.7
2022-10-11T12:43:54.911Z,99995.42
2022-10-11T12:44:59.052Z,99987.76
2022-10-11T12:46:03.522Z,99989.47
2022-10-11T12:47:08.240Z,99991.58
2022-10-11T12:48:12.372Z,99996.59
2022-10-11T12:49:16.459Z,99989.09
2022-10-11T12:50:20.544Z,99997.69
2022-10-11T12:51:24.683Z,99994.67
2022-10-11T12:52:28.815Z,100003.88
2022-10-11T12:53:32.972Z,100002.59
2022-10-11T12:54:38.435Z,100010.13
2022-10-11T12:55:42.539Z,99998.4
2022-10-11T12:56:46.707Z,100009.02
2022-10-11T12:57:50.863Z,100002.87
2022-10-11T12:58:55.020Z,100008.12
2022-10-11T12:59:59.384Z,100005.42
2022-10-11T13:01:03.869Z,100012.02
2022-10-11T13:02:10.127Z,100008.11
2022-10-11T13:03:14.423Z,100012.61
2022-10-11T13:04:18.564Z,100016.86
2022-10-11T13:05:22.690Z,100023.53
2022-10-11T13:06:26.830Z,100019.33
2022-10-11T13:07:30.996Z,100013.75
2022-10-11T13:08:35.120Z,100017.74
2022-10-11T13:09:39.276Z,100014.52
2022-10-11T13:10:45.491Z,100019.5
2022-10-11T13:11:49.633Z,100024.43
2022-10-11T13:12:53.778Z,100025.12
2022-10-11T13:13:57.916Z,100020.14
2022-10-11T13:15:02.073Z,100026.78
2022-10-11T13:16:07.039Z,100026.61
2022-10-11T13:17:12.071Z,100027.88
2022-10-11T13:18:16.199Z,100026.98
2022-10-11T13:19:20.344Z,100029.7
2022-10-11T13:20:24.526Z,100026.52